sensor_id;sensor_type;location;lat;lon;timestamp;pressure;altitude;pressure_sealevel;temperature;humidity
85928;BME280;76685;49.582;18.342;2024-03-02T00:01:31;96451.08;;;9.84;76.83
85928;BME280;76685;49.582;18.342;2024-03-02T00:03:59;96451.80;;;9.81;76.73
85928;BME280;76685;49.582;18.342;2024-03-02T00:06:26;96448.29;;;9.79;76.88
85928;BME280;76685;49.582;18.342;2024-03-02T00:08:57;96443.82;;;9.76;76.95
85928;BME280;76685;49.582;18.342;2024-03-02T00:11:24;96442.13;;;9.74;76.94
85928;BME280;76685;49.582;18.342;2024-03-02T00:13:54;96446.55;;;9.73;76.88
85928;BME280;76685;49.582;18.342;2024-03-02T00:16:21;96445.33;;;9.72;76.86
85928;BME280;76685;49.582;18.342;2024-03-02T00:18:49;96443.48;;;9.69;76.73
85928;BME280;76685;49.582;18.342;2024-03-02T00:21:16;96445.67;;;9.69;76.76
85928;BME280;76685;49.582;18.342;2024-03-02T00:23:48;96447.17;;;9.69;76.78
85928;BME280;76685;49.582;18.342;2024-03-02T00:26:15;96447.91;;;9.68;76.83
85928;BME280;76685;49.582;18.342;2024-03-02T00:28:42;96439.13;;;9.68;76.75
85928;BME280;76685;49.582;18.342;2024-03-02T00:31:12;96439.09;;;9.67;76.64
85928;BME280;76685;49.582;18.342;2024-03-02T00:33:49;96436.25;;;9.65;76.70
85928;BME280;76685;49.582;18.342;2024-03-02T00:36:22;96428.08;;;9.61;76.70
85928;BME280;76685;49.582;18.342;2024-03-02T00:38:52;96429.64;;;9.59;76.69
85928;BME280;76685;49.582;18.342;2024-03-02T00:44:04;96430.99;;;9.52;77.13
85928;BME280;76685;49.582;18.342;2024-03-02T00:46:36;96429.70;;;9.44;77.15
85928;BME280;76685;49.582;18.342;2024-03-02T00:51:50;96431.64;;;9.39;77.32
85928;BME280;76685;49.582;18.342;2024-03-02T00:54:27;96432.64;;;9.33;77.32
85928;BME280;76685;49.582;18.342;2024-03-02T00:56:55;96431.23;;;9.30;77.37
85928;BME280;76685;49.582;18.342;2024-03-02T00:59:24;96431.54;;;9.29;77.19
85928;BME280;76685;49.582;18.342;2024-03-02T01:01:51;96433.64;;;9.32;77.33
85928;BME280;76685;49.582;18.342;2024-03-02T01:04:18;96437.04;;;9.31;77.59
85928;BME280;76685;49.582;18.342;2024-03-02T01:06:45;96439.05;;;9.29;77.45
85928;BME280;76685;49.582;18.342;2024-03-02T01:09:12;96435.80;;;9.28;77.55
85928;BME280;76685;49.582;18.342;2024-03-02T01:11:40;96436.94;;;9.29;77.72
85928;BME280;76685;49.582;18.342;2024-03-02T01:14:07;96441.46;;;9.30;77.59
85928;BME280;76685;49.582;18.342;2024-03-02T01:16:34;96439.19;;;9.30;77.58
85928;BME280;76685;49.582;18.342;2024-03-02T01:19:01;96440.77;;;9.29;77.54
85928;BME280;76685;49.582;18.342;2024-03-02T01:21:28;96438.03;;;9.26;77.75
85928;BME280;76685;49.582;18.342;2024-03-02T01:23:55;96440.02;;;9.22;78.03
85928;BME280;76685;49.582;18.342;2024-03-02T01:26:22;96443.48;;;9.18;78.11
85928;BME280;76685;49.582;18.342;2024-03-02T01:28:49;96441.29;;;9.14;78.20
85928;BME280;76685;49.582;18.342;2024-03-02T01:31:16;96438.61;;;9.07;78.21
85928;BME280;76685;49.582;18.342;2024-03-02T01:33:43;96442.70;;;9.08;78.13
85928;BME280;76685;49.582;18.342;2024-03-02T01:36:10;96435.85;;;9.05;78.09
85928;BME280;76685;49.582;18.342;2024-03-02T01:38:36;96433.89;;;9.00;78.38
85928;BME280;76685;49.582;18.342;2024-03-02T01:41:04;96429.38;;;8.92;78.52
85928;BME280;76685;49.582;18.342;2024-03-02T01:43:31;96427.42;;;8.85;78.79
85928;BME280;76685;49.582;18.342;2024-03-02T01:45:57;96427.86;;;8.79;79.28
85928;BME280;76685;49.582;18.342;2024-03-02T01:48:25;96427.13;;;8.75;79.15
85928;BME280;76685;49.582;18.342;2024-03-02T01:50:52;96423.86;;;8.65;79.09
85928;BME280;76685;49.582;18.342;2024-03-02T01:53:19;96425.05;;;8.56;79.48
85928;BME280;76685;49.582;18.342;2024-03-02T01:55:46;96422.80;;;8.54;79.62
85928;BME280;76685;49.582;18.342;2024-03-02T01:58:13;96422.55;;;8.48;79.61
85928;BME280;76685;49.582;18.342;2024-03-02T02:00:40;96425.70;;;8.43;79.69
85928;BME280;76685;49.582;18.342;2024-03-02T02:03:07;96421.91;;;8.39;80.15
85928;BME280;76685;49.582;18.342;2024-03-02T02:05:35;96418.91;;;8.31;79.95
85928;BME280;76685;49.582;18.342;2024-03-02T02:08:02;96425.59;;;8.23;80.60
85928;BME280;76685;49.582;18.342;2024-03-02T02:10:29;96428.05;;;8.14;80.66
85928;BME280;76685;49.582;18.342;2024-03-02T02:12:56;96424.14;;;8.10;80.81
85928;BME280;76685;49.582;18.342;2024-03-02T02:15:25;96416.23;;;8.02;81.08
85928;BME280;76685;49.582;18.342;2024-03-02T02:17:52;96416.38;;;7.96;81.24
85928;BME280;76685;49.582;18.342;2024-03-02T02:20:20;96419.20;;;7.94;81.42
85928;BME280;76685;49.582;18.342;2024-03-02T02:23:03;96417.00;;;7.90;81.52
85928;BME280;76685;49.582;18.342;2024-03-02T02:25:32;96421.69;;;7.87;81.43
85928;BME280;76685;49.582;18.342;2024-03-02T02:27:59;96416.99;;;7.84;81.92
85928;BME280;76685;49.582;18.342;2024-03-02T02:30:28;96417.28;;;7.84;82.30
85928;BME280;76685;49.582;18.342;2024-03-02T02:32:56;96418.15;;;7.84;82.49
85928;BME280;76685;49.582;18.342;2024-03-02T02:35:23;96410.48;;;7.80;83.26
85928;BME280;76685;49.582;18.342;2024-03-02T02:37:55;96409.95;;;7.79;82.91
85928;BME280;76685;49.582;18.342;2024-03-02T02:40:22;96404.31;;;7.79;82.65
85928;BME280;76685;49.582;18.342;2024-03-02T02:42:49;96398.41;;;7.81;82.93
85928;BME280;76685;49.582;18.342;2024-03-02T02:45:18;96397.46;;;7.82;82.72
85928;BME280;76685;49.582;18.342;2024-03-02T02:47:45;96399.59;;;7.83;83.06
85928;BME280;76685;49.582;18.342;2024-03-02T02:50:12;96400.30;;;7.83;82.69
85928;BME280;76685;49.582;18.342;2024-03-02T02:52:40;96402.50;;;7.80;82.87
85928;BME280;76685;49.582;18.342;2024-03-02T02:55:09;96397.66;;;7.75;82.92
85928;BME280;76685;49.582;18.342;2024-03-02T02:57:38;96401.70;;;7.76;83.20
85928;BME280;76685;49.582;18.342;2024-03-02T03:00:13;96400.25;;;7.79;82.78
85928;BME280;76685;49.582;18.342;2024-03-02T03:02:42;96401.55;;;7.83;82.98
85928;BME280;76685;49.582;18.342;2024-03-02T03:05:10;96409.64;;;7.83;82.76
85928;BME280;76685;49.582;18.342;2024-03-02T03:07:39;96402.93;;;7.82;82.65
85928;BME280;76685;49.582;18.342;2024-03-02T03:10:07;96408.39;;;7.80;82.59
85928;BME280;76685;49.582;18.342;2024-03-02T03:12:34;96411.13;;;7.80;82.46
85928;BME280;76685;49.582;18.342;2024-03-02T03:15:02;96408.13;;;7.79;82.82
85928;BME280;76685;49.582;18.342;2024-03-02T03:17:31;96410.98;;;7.77;82.45
85928;BME280;76685;49.582;18.342;2024-03-02T03:19:58;96411.60;;;7.74;82.72
85928;BME280;76685;49.582;18.342;2024-03-02T03:22:25;96410.98;;;7.75;82.62
85928;BME280;76685;49.582;18.342;2024-03-02T03:24:53;96411.58;;;7.79;82.58
85928;BME280;76685;49.582;18.342;2024-03-02T03:27:20;96415.52;;;7.85;83.23
85928;BME280;76685;49.582;18.342;2024-03-02T03:29:47;96416.87;;;7.90;82.83
85928;BME280;76685;49.582;18.342;2024-03-02T03:32:14;96410.36;;;7.94;83.04
85928;BME280;76685;49.582;18.342;2024-03-02T03:34:41;96413.38;;;7.97;82.79
85928;BME280;76685;49.582;18.342;2024-03-02T03:37:08;96414.39;;;8.00;82.67
85928;BME280;76685;49.582;18.342;2024-03-02T03:39:37;96419.23;;;8.00;82.63
85928;BME280;76685;49.582;18.342;2024-03-02T03:42:04;96418.38;;;7.98;82.57
85928;BME280;76685;49.582;18.342;2024-03-02T03:44:31;96411.23;;;8.00;82.35
85928;BME280;76685;49.582;18.342;2024-03-02T03:46:58;96417.68;;;8.03;82.49
85928;BME280;76685;49.582;18.342;2024-03-02T03:49:25;96414.52;;;8.03;82.35
85928;BME280;76685;49.582;18.342;2024-03-02T03:51:52;96419.50;;;8.03;82.21
85928;BME280;76685;49.582;18.342;2024-03-02T03:54:19;96418.41;;;8.07;82.19
85928;BME280;76685;49.582;18.342;2024-03-02T03:56:46;96415.67;;;8.07;82.42
85928;BME280;76685;49.582;18.342;2024-03-02T03:59:13;96415.27;;;8.04;82.41
85928;BME280;76685;49.582;18.342;2024-03-02T04:01:40;96413.13;;;8.02;82.34
85928;BME280;76685;49.582;18.342;2024-03-02T04:04:07;96410.92;;;8.04;82.26
85928;BME280;76685;49.582;18.342;2024-03-02T04:06:34;96406.98;;;8.12;82.23
85928;BME280;76685;49.582;18.342;2024-03-02T04:09:00;96405.67;;;8.21;82.07
85928;BME280;76685;49.582;18.342;2024-03-02T04:11:28;96405.70;;;8.31;81.69
85928;BME280;76685;49.582;18.342;2024-03-02T04:13:55;96404.26;;;8.39;81.59
85928;BME280;76685;49.582;18.342;2024-03-02T04:16:22;96400.96;;;8.44;81.15
85928;BME280;76685;49.582;18.342;2024-03-02T04:18:49;96403.91;;;8.45;81.25
85928;BME280;76685;49.582;18.342;2024-03-02T04:21:16;96405.08;;;8.44;80.98
85928;BME280;76685;49.582;18.342;2024-03-02T04:23:43;96404.92;;;8.42;80.96
85928;BME280;76685;49.582;18.342;2024-03-02T04:26:10;96405.05;;;8.43;80.97
85928;BME280;76685;49.582;18.342;2024-03-02T04:28:37;96401.78;;;8.40;81.14
85928;BME280;76685;49.582;18.342;2024-03-02T04:31:04;96400.80;;;8.34;81.04
85928;BME280;76685;49.582;18.342;2024-03-02T04:33:31;96404.95;;;8.28;81.37
85928;BME280;76685;49.582;18.342;2024-03-02T04:35:58;96404.45;;;8.23;81.09
85928;BME280;76685;49.582;18.342;2024-03-02T04:38:25;96408.69;;;8.19;81.15
85928;BME280;76685;49.582;18.342;2024-03-02T04:40:52;96409.49;;;8.17;81.44
85928;BME280;76685;49.582;18.342;2024-03-02T04:43:21;96412.33;;;8.12;81.21
85928;BME280;76685;49.582;18.342;2024-03-02T04:45:48;96409.27;;;8.05;81.10
85928;BME280;76685;49.582;18.342;2024-03-02T04:48:15;96412.34;;;7.99;81.53
85928;BME280;76685;49.582;18.342;2024-03-02T04:50:42;96415.56;;;7.95;81.60
85928;BME280;76685;49.582;18.342;2024-03-02T04:53:09;96415.15;;;7.94;81.99
85928;BME280;76685;49.582;18.342;2024-03-02T04:55:36;96413.98;;;7.94;82.27
85928;BME280;76685;49.582;18.342;2024-03-02T04:58:05;96417.33;;;7.93;82.11
85928;BME280;76685;49.582;18.342;2024-03-02T05:00:34;96417.48;;;7.89;81.83
85928;BME280;76685;49.582;18.342;2024-03-02T05:03:01;96413.86;;;7.85;81.98
85928;BME280;76685;49.582;18.342;2024-03-02T05:05:28;96410.35;;;7.80;82.01
85928;BME280;76685;49.582;18.342;2024-03-02T05:07:55;96423.85;;;7.73;82.23
85928;BME280;76685;49.582;18.342;2024-03-02T05:10:22;96426.55;;;7.67;82.40
85928;BME280;76685;49.582;18.342;2024-03-02T05:12:51;96431.88;;;7.63;82.47
85928;BME280;76685;49.582;18.342;2024-03-02T05:15:26;96434.29;;;7.61;82.70
85928;BME280;76685;49.582;18.342;2024-03-02T05:17:53;96435.86;;;7.60;82.55
85928;BME280;76685;49.582;18.342;2024-03-02T05:20:20;96437.20;;;7.58;82.75
85928;BME280;76685;49.582;18.342;2024-03-02T05:22:47;96437.87;;;7.55;82.76
85928;BME280;76685;49.582;18.342;2024-03-02T05:25:15;96441.08;;;7.50;82.74
85928;BME280;76685;49.582;18.342;2024-03-02T05:27:42;96440.73;;;7.46;82.61
85928;BME280;76685;49.582;18.342;2024-03-02T05:30:09;96441.76;;;7.41;82.88
85928;BME280;76685;49.582;18.342;2024-03-02T05:32:37;96441.02;;;7.37;83.19
85928;BME280;76685;49.582;18.342;2024-03-02T05:35:04;96438.34;;;7.36;83.55
85928;BME280;76685;49.582;18.342;2024-03-02T05:37:32;96438.17;;;7.39;83.51
85928;BME280;76685;49.582;18.342;2024-03-02T05:39:59;96442.88;;;7.40;83.37
85928;BME280;76685;49.582;18.342;2024-03-02T05:42:26;96440.36;;;7.39;83.33
85928;BME280;76685;49.582;18.342;2024-03-02T05:44:53;96444.61;;;7.38;83.21
85928;BME280;76685;49.582;18.342;2024-03-02T05:47:21;96446.43;;;7.35;83.35
85928;BME280;76685;49.582;18.342;2024-03-02T05:49:48;96454.30;;;7.27;83.53
85928;BME280;76685;49.582;18.342;2024-03-02T05:52:15;96455.12;;;7.24;83.25
85928;BME280;76685;49.582;18.342;2024-03-02T05:54:42;96457.30;;;7.18;83.61
85928;BME280;76685;49.582;18.342;2024-03-02T05:57:09;96458.20;;;7.12;83.93
85928;BME280;76685;49.582;18.342;2024-03-02T05:59:54;96462.67;;;7.10;83.59
85928;BME280;76685;49.582;18.342;2024-03-02T06:02:21;96463.31;;;7.08;83.80
85928;BME280;76685;49.582;18.342;2024-03-02T06:04:48;96459.14;;;7.07;83.91
85928;BME280;76685;49.582;18.342;2024-03-02T06:07:15;96459.50;;;7.04;84.29
85928;BME280;76685;49.582;18.342;2024-03-02T06:09:42;96465.80;;;7.04;84.23
85928;BME280;76685;49.582;18.342;2024-03-02T06:12:11;96467.99;;;7.03;84.42
85928;BME280;76685;49.582;18.342;2024-03-02T06:14:38;96471.42;;;7.08;84.47
85928;BME280;76685;49.582;18.342;2024-03-02T06:17:05;96469.80;;;7.11;84.28
85928;BME280;76685;49.582;18.342;2024-03-02T06:19:32;96472.80;;;7.14;84.47
85928;BME280;76685;49.582;18.342;2024-03-02T06:21:59;96475.08;;;7.18;84.31
85928;BME280;76685;49.582;18.342;2024-03-02T06:24:26;96475.35;;;7.22;84.45
85928;BME280;76685;49.582;18.342;2024-03-02T06:26:53;96475.11;;;7.26;84.41
85928;BME280;76685;49.582;18.342;2024-03-02T06:29:20;96471.02;;;7.32;84.36
85928;BME280;76685;49.582;18.342;2024-03-02T06:31:47;96474.35;;;7.36;84.32
85928;BME280;76685;49.582;18.342;2024-03-02T06:34:14;96472.17;;;7.42;84.14
85928;BME280;76685;49.582;18.342;2024-03-02T06:36:41;96474.27;;;7.51;84.03
85928;BME280;76685;49.582;18.342;2024-03-02T06:39:09;96478.30;;;7.63;83.73
85928;BME280;76685;49.582;18.342;2024-03-02T06:41:37;96480.83;;;7.74;83.75
85928;BME280;76685;49.582;18.342;2024-03-02T06:44:04;96485.65;;;7.88;83.24
85928;BME280;76685;49.582;18.342;2024-03-02T06:46:32;96487.76;;;8.00;82.90
85928;BME280;76685;49.582;18.342;2024-03-02T06:48:59;96485.92;;;8.09;82.66
85928;BME280;76685;49.582;18.342;2024-03-02T06:51:26;96488.55;;;8.17;82.48
85928;BME280;76685;49.582;18.342;2024-03-02T06:53:53;96484.95;;;8.24;82.31
85928;BME280;76685;49.582;18.342;2024-03-02T06:56:20;96490.48;;;8.32;81.91
85928;BME280;76685;49.582;18.342;2024-03-02T06:58:47;96488.94;;;8.41;81.74
85928;BME280;76685;49.582;18.342;2024-03-02T07:01:14;96494.34;;;8.51;81.77
85928;BME280;76685;49.582;18.342;2024-03-02T07:03:41;96493.20;;;8.58;81.89
85928;BME280;76685;49.582;18.342;2024-03-02T07:06:08;96497.77;;;8.65;81.57
85928;BME280;76685;49.582;18.342;2024-03-02T07:08:35;96502.30;;;8.71;81.29
85928;BME280;76685;49.582;18.342;2024-03-02T07:11:02;96502.59;;;8.79;81.37
85928;BME280;76685;49.582;18.342;2024-03-02T07:13:29;96505.79;;;8.85;81.50
85928;BME280;76685;49.582;18.342;2024-03-02T07:15:56;96503.51;;;8.93;81.08
85928;BME280;76685;49.582;18.342;2024-03-02T07:18:26;96507.90;;;9.01;80.74
85928;BME280;76685;49.582;18.342;2024-03-02T07:20:53;96511.23;;;9.09;80.43
85928;BME280;76685;49.582;18.342;2024-03-02T07:23:22;96510.73;;;9.17;80.17
85928;BME280;76685;49.582;18.342;2024-03-02T07:25:53;96514.08;;;9.26;79.93
85928;BME280;76685;49.582;18.342;2024-03-02T07:28:23;96516.63;;;9.34;79.99
85928;BME280;76685;49.582;18.342;2024-03-02T07:31:04;96520.34;;;9.43;79.61
85928;BME280;76685;49.582;18.342;2024-03-02T07:33:31;96522.42;;;9.52;79.28
85928;BME280;76685;49.582;18.342;2024-03-02T07:35:59;96523.60;;;9.59;78.59
85928;BME280;76685;49.582;18.342;2024-03-02T07:38:30;96520.65;;;9.65;78.45
85928;BME280;76685;49.582;18.342;2024-03-02T07:40:58;96523.05;;;9.73;77.13
85928;BME280;76685;49.582;18.342;2024-03-02T07:43:25;96523.89;;;9.83;77.79
85928;BME280;76685;49.582;18.342;2024-03-02T07:45:52;96522.75;;;9.93;76.37
85928;BME280;76685;49.582;18.342;2024-03-02T07:48:19;96522.50;;;10.05;76.09
85928;BME280;76685;49.582;18.342;2024-03-02T07:50:46;96525.53;;;10.13;76.03
85928;BME280;76685;49.582;18.342;2024-03-02T07:53:13;96526.48;;;10.22;74.62
85928;BME280;76685;49.582;18.342;2024-03-02T07:55:41;96528.61;;;10.31;74.86
85928;BME280;76685;49.582;18.342;2024-03-02T07:58:09;96527.40;;;10.39;74.32
85928;BME280;76685;49.582;18.342;2024-03-02T08:00:36;96525.15;;;10.47;74.04
85928;BME280;76685;49.582;18.342;2024-03-02T08:03:03;96524.08;;;10.55;72.70
85928;BME280;76685;49.582;18.342;2024-03-02T08:05:30;96524.23;;;10.64;72.74
85928;BME280;76685;49.582;18.342;2024-03-02T08:07:57;96525.27;;;10.73;72.84
85928;BME280;76685;49.582;18.342;2024-03-02T08:10:24;96521.96;;;10.80;71.94
85928;BME280;76685;49.582;18.342;2024-03-02T08:12:51;96527.45;;;10.89;72.14
85928;BME280;76685;49.582;18.342;2024-03-02T08:15:19;96526.91;;;10.97;71.19
85928;BME280;76685;49.582;18.342;2024-03-02T08:17:46;96531.52;;;11.05;71.42
85928;BME280;76685;49.582;18.342;2024-03-02T08:20:16;96531.29;;;11.11;72.28
85928;BME280;76685;49.582;18.342;2024-03-02T08:22:43;96535.34;;;11.16;72.48
85928;BME280;76685;49.582;18.342;2024-03-02T08:25:10;96535.15;;;11.18;72.31
85928;BME280;76685;49.582;18.342;2024-03-02T08:27:40;96534.22;;;11.18;72.39
85928;BME280;76685;49.582;18.342;2024-03-02T08:30:07;96539.89;;;11.16;71.14
85928;BME280;76685;49.582;18.342;2024-03-02T08:32:35;96540.42;;;11.11;71.20
85928;BME280;76685;49.582;18.342;2024-03-02T08:35:02;96538.45;;;11.09;71.78
85928;BME280;76685;49.582;18.342;2024-03-02T08:37:29;96538.65;;;11.09;71.69
85928;BME280;76685;49.582;18.342;2024-03-02T08:39:56;96535.52;;;11.08;71.15
85928;BME280;76685;49.582;18.342;2024-03-02T08:42:23;96538.40;;;11.07;70.81
85928;BME280;76685;49.582;18.342;2024-03-02T08:44:50;96536.56;;;11.07;71.33
85928;BME280;76685;49.582;18.342;2024-03-02T08:47:17;96536.08;;;11.08;70.46
85928;BME280;76685;49.582;18.342;2024-03-02T08:49:44;96539.30;;;11.11;70.85
85928;BME280;76685;49.582;18.342;2024-03-02T08:52:11;96541.55;;;11.16;71.00
85928;BME280;76685;49.582;18.342;2024-03-02T08:54:38;96535.06;;;11.20;71.09
85928;BME280;76685;49.582;18.342;2024-03-02T08:57:05;96538.33;;;11.23;70.73
85928;BME280;76685;49.582;18.342;2024-03-02T08:59:33;96541.51;;;11.27;70.28
85928;BME280;76685;49.582;18.342;2024-03-02T09:02:00;96545.27;;;11.30;69.79
85928;BME280;76685;49.582;18.342;2024-03-02T09:04:28;96543.05;;;11.32;69.73
85928;BME280;76685;49.582;18.342;2024-03-02T09:06:55;96542.60;;;11.34;69.70
85928;BME280;76685;49.582;18.342;2024-03-02T09:09:22;96543.73;;;11.35;69.73
85928;BME280;76685;49.582;18.342;2024-03-02T09:11:49;96545.73;;;11.35;69.90
85928;BME280;76685;49.582;18.342;2024-03-02T09:14:17;96548.36;;;11.34;70.25
85928;BME280;76685;49.582;18.342;2024-03-02T09:16:44;96548.61;;;11.33;69.90
85928;BME280;76685;49.582;18.342;2024-03-02T09:19:11;96548.61;;;11.31;69.62
85928;BME280;76685;49.582;18.342;2024-03-02T09:21:38;96550.08;;;11.28;69.75
85928;BME280;76685;49.582;18.342;2024-03-02T09:24:05;96550.60;;;11.26;70.06
85928;BME280;76685;49.582;18.342;2024-03-02T09:26:33;96547.36;;;11.28;70.01
85928;BME280;76685;49.582;18.342;2024-03-02T09:29:00;96554.53;;;11.32;70.37
85928;BME280;76685;49.582;18.342;2024-03-02T09:31:29;96554.88;;;11.36;69.63
85928;BME280;76685;49.582;18.342;2024-03-02T09:33:56;96558.14;;;11.39;69.82
85928;BME280;76685;49.582;18.342;2024-03-02T09:36:23;96556.55;;;11.41;69.74
85928;BME280;76685;49.582;18.342;2024-03-02T09:38:50;96560.77;;;11.42;69.74
85928;BME280;76685;49.582;18.342;2024-03-02T09:41:17;96559.15;;;11.42;69.77
85928;BME280;76685;49.582;18.342;2024-03-02T09:43:44;96558.68;;;11.42;70.18
85928;BME280;76685;49.582;18.342;2024-03-02T09:46:11;96558.86;;;11.42;70.08
85928;BME280;76685;49.582;18.342;2024-03-02T09:48:38;96565.20;;;11.39;69.71
85928;BME280;76685;49.582;18.342;2024-03-02T09:51:05;96566.77;;;11.36;70.23
85928;BME280;76685;49.582;18.342;2024-03-02T09:53:33;96567.51;;;11.30;70.35
85928;BME280;76685;49.582;18.342;2024-03-02T09:56:01;96571.58;;;11.24;70.66
85928;BME280;76685;49.582;18.342;2024-03-02T09:58:28;96574.08;;;11.20;71.28
85928;BME280;76685;49.582;18.342;2024-03-02T10:00:56;96575.39;;;11.14;71.55
85928;BME280;76685;49.582;18.342;2024-03-02T10:03:23;96571.48;;;11.08;72.38
85928;BME280;76685;49.582;18.342;2024-03-02T10:05:53;96580.30;;;11.02;72.77
85928;BME280;76685;49.582;18.342;2024-03-02T10:08:20;96576.81;;;10.92;73.26
85928;BME280;76685;49.582;18.342;2024-03-02T10:10:47;96577.02;;;10.82;74.13
85928;BME280;76685;49.582;18.342;2024-03-02T10:13:14;96578.54;;;10.72;74.37
85928;BME280;76685;49.582;18.342;2024-03-02T10:15:41;96575.52;;;10.64;74.85
85928;BME280;76685;49.582;18.342;2024-03-02T10:18:12;96579.48;;;10.59;75.45
85928;BME280;76685;49.582;18.342;2024-03-02T10:20:40;96573.80;;;10.56;75.49
85928;BME280;76685;49.582;18.342;2024-03-02T10:23:14;96576.86;;;10.53;75.46
85928;BME280;76685;49.582;18.342;2024-03-02T10:25:43;96575.52;;;10.51;75.38
85928;BME280;76685;49.582;18.342;2024-03-02T10:28:11;96574.60;;;10.49;75.75
85928;BME280;76685;49.582;18.342;2024-03-02T10:30:38;96576.77;;;10.50;75.99
85928;BME280;76685;49.582;18.342;2024-03-02T10:33:06;96577.39;;;10.49;75.64
85928;BME280;76685;49.582;18.342;2024-03-02T10:35:33;96577.42;;;10.49;76.09
85928;BME280;76685;49.582;18.342;2024-03-02T10:38:04;96578.05;;;10.48;76.37
85928;BME280;76685;49.582;18.342;2024-03-02T10:40:32;96576.66;;;10.48;76.61
85928;BME280;76685;49.582;18.342;2024-03-02T10:43:01;96571.10;;;10.49;76.43
85928;BME280;76685;49.582;18.342;2024-03-02T10:45:29;96572.69;;;10.52;76.39
85928;BME280;76685;49.582;18.342;2024-03-02T10:47:57;96572.29;;;10.56;76.64
85928;BME280;76685;49.582;18.342;2024-03-02T10:50:24;96574.81;;;10.57;76.54
85928;BME280;76685;49.582;18.342;2024-03-02T10:52:51;96573.65;;;10.58;76.49
85928;BME280;76685;49.582;18.342;2024-03-02T10:55:18;96573.73;;;10.61;76.94
85928;BME280;76685;49.582;18.342;2024-03-02T10:57:51;96573.30;;;10.65;76.69
85928;BME280;76685;49.582;18.342;2024-03-02T11:00:19;96570.27;;;10.64;76.64
85928;BME280;76685;49.582;18.342;2024-03-02T11:02:54;96566.62;;;10.62;76.51
85928;BME280;76685;49.582;18.342;2024-03-02T11:05:28;96569.77;;;10.60;76.08
85928;BME280;76685;49.582;18.342;2024-03-02T11:08:00;96568.69;;;10.59;76.64
85928;BME280;76685;49.582;18.342;2024-03-02T11:10:35;96566.86;;;10.60;77.01
85928;BME280;76685;49.582;18.342;2024-03-02T11:13:09;96566.48;;;10.60;77.11
85928;BME280;76685;49.582;18.342;2024-03-02T11:15:36;96568.38;;;10.62;77.24
85928;BME280;76685;49.582;18.342;2024-03-02T11:18:05;96568.67;;;10.64;76.94
85928;BME280;76685;49.582;18.342;2024-03-02T11:20:39;96568.71;;;10.64;77.12
85928;BME280;76685;49.582;18.342;2024-03-02T11:23:07;96563.94;;;10.65;77.24
85928;BME280;76685;49.582;18.342;2024-03-02T11:25:35;96563.34;;;10.65;77.26
85928;BME280;76685;49.582;18.342;2024-03-02T11:28:04;96557.64;;;10.64;77.14
85928;BME280;76685;49.582;18.342;2024-03-02T11:35:26;96550.42;;;10.67;76.62
85928;BME280;76685;49.582;18.342;2024-03-02T11:37:55;96551.78;;;10.72;77.01
85928;BME280;76685;49.582;18.342;2024-03-02T11:40:25;96550.09;;;10.75;76.62
85928;BME280;76685;49.582;18.342;2024-03-02T11:42:52;96546.80;;;10.77;77.03
85928;BME280;76685;49.582;18.342;2024-03-02T11:45:24;96550.66;;;10.81;77.18
85928;BME280;76685;49.582;18.342;2024-03-02T11:47:53;96552.23;;;10.82;76.90
85928;BME280;76685;49.582;18.342;2024-03-02T11:52:58;96549.88;;;10.85;76.53
85928;BME280;76685;49.582;18.342;2024-03-02T11:55:25;96549.46;;;10.86;76.76
85928;BME280;76685;49.582;18.342;2024-03-02T11:57:53;96553.94;;;10.87;76.39
85928;BME280;76685;49.582;18.342;2024-03-02T12:00:20;96552.65;;;10.87;76.30
85928;BME280;76685;49.582;18.342;2024-03-02T12:03:07;96550.56;;;10.89;76.38
85928;BME280;76685;49.582;18.342;2024-03-02T12:05:36;96549.91;;;10.90;76.30
85928;BME280;76685;49.582;18.342;2024-03-02T12:08:06;96548.27;;;10.93;76.58
85928;BME280;76685;49.582;18.342;2024-03-02T12:10:35;96548.23;;;10.93;75.82
85928;BME280;76685;49.582;18.342;2024-03-02T12:13:05;96543.60;;;10.91;75.92
85928;BME280;76685;49.582;18.342;2024-03-02T12:15:35;96546.07;;;10.91;76.02
85928;BME280;76685;49.582;18.342;2024-03-02T12:18:03;96545.52;;;10.91;76.27
85928;BME280;76685;49.582;18.342;2024-03-02T12:20:32;96543.80;;;10.90;76.21
85928;BME280;76685;49.582;18.342;2024-03-02T12:23:02;96543.64;;;10.89;75.89
85928;BME280;76685;49.582;18.342;2024-03-02T12:25:30;96540.92;;;10.88;76.19
85928;BME280;76685;49.582;18.342;2024-03-02T12:28:00;96540.13;;;10.88;76.28
85928;BME280;76685;49.582;18.342;2024-03-02T12:30:30;96539.21;;;10.88;76.22
85928;BME280;76685;49.582;18.342;2024-03-02T12:32:58;96544.42;;;10.88;76.47
85928;BME280;76685;49.582;18.342;2024-03-02T12:35:25;96538.54;;;10.87;76.39
85928;BME280;76685;49.582;18.342;2024-03-02T12:37:53;96540.79;;;10.84;76.32
85928;BME280;76685;49.582;18.342;2024-03-02T12:40:21;96540.45;;;10.83;76.33
85928;BME280;76685;49.582;18.342;2024-03-02T12:42:49;96538.98;;;10.81;76.52
85928;BME280;76685;49.582;18.342;2024-03-02T12:45:17;96539.15;;;10.81;76.44
85928;BME280;76685;49.582;18.342;2024-03-02T12:47:50;96540.06;;;10.81;76.38
85928;BME280;76685;49.582;18.342;2024-03-02T12:50:21;96541.52;;;10.80;76.32
85928;BME280;76685;49.582;18.342;2024-03-02T12:52:52;96540.34;;;10.78;76.17
85928;BME280;76685;49.582;18.342;2024-03-02T12:55:23;96539.33;;;10.76;76.04
85928;BME280;76685;49.582;18.342;2024-03-02T12:57:52;96534.73;;;10.73;76.01
85928;BME280;76685;49.582;18.342;2024-03-02T13:00:20;96530.20;;;10.68;76.14
85928;BME280;76685;49.582;18.342;2024-03-02T13:02:47;96532.12;;;10.66;76.45
85928;BME280;76685;49.582;18.342;2024-03-02T13:05:15;96528.73;;;10.62;76.50
85928;BME280;76685;49.582;18.342;2024-03-02T13:07:42;96526.22;;;10.60;76.40
85928;BME280;76685;49.582;18.342;2024-03-02T13:10:09;96525.67;;;10.62;76.61
85928;BME280;76685;49.582;18.342;2024-03-02T13:12:37;96524.32;;;10.65;76.36